Time;durP1;ratioP1;P1;durP2;ratioP2;P2;SDS_P1;SDS_P2;PMS_P1;PMS_P2;Temp;Humidity;BMP_temperature;BMP_pressure;BME280_temperature;BME280_humidity;BME280_pressure;Samples;Min_cycle;Max_cycle;Signal;HPM_P1;HPM_P2
2023/10/18 00:02:50;;;;;;;7.13;3.90;;;11.00;61.60;;;;;;5009761;28;20048;-49
2023/10/18 00:05:18;;;;;;;5.20;3.75;;;11.00;61.70;;;;;;5010292;28;20042;-49
2023/10/18 00:07:45;;;;;;;4.93;3.83;;;11.00;61.60;;;;;;5010952;28;20049;-51
2023/10/18 00:10:12;;;;;;;5.35;4.15;;;11.00;61.60;;;;;;4993446;28;20456;-55
2023/10/18 00:12:39;;;;;;;4.78;4.13;;;11.00;61.50;;;;;;4987130;28;20046;-52
2023/10/18 00:15:07;;;;;;;4.75;3.70;;;11.00;61.60;;;;;;5001276;28;20041;-50
2023/10/18 00:17:37;;;;;;;4.85;3.90;;;11.00;61.60;;;;;;4995489;28;20072;-50
2023/10/18 00:20:13;;;;;;;6.53;4.25;;;10.90;61.80;;;;;;4988977;28;20050;-51
2023/10/18 00:22:40;;;;;;;6.28;3.55;;;11.00;61.70;;;;;;4987757;28;20097;-53
2023/10/18 00:25:08;;;;;;;5.43;4.30;;;10.90;61.60;;;;;;4997097;28;20502;-54
2023/10/18 00:27:35;;;;;;;6.45;4.05;;;10.90;61.60;;;;;;4988327;28;20562;-53
2023/10/18 00:30:07;;;;;;;4.15;3.53;;;10.90;61.60;;;;;;5001238;28;20054;-51
2023/10/18 00:32:34;;;;;;;6.45;4.28;;;10.90;61.60;;;;;;5002381;28;20069;-53
2023/10/18 00:35:12;;;;;;;4.25;3.67;;;10.90;61.50;;;;;;5005370;28;20042;-49
2023/10/18 00:37:43;;;;;;;5.65;4.07;;;10.90;61.50;;;;;;4993246;28;20466;-52
2023/10/18 00:40:21;;;;;;;4.43;3.88;;;10.90;61.60;;;;;;5008474;28;20046;-53
2023/10/18 00:42:52;;;;;;;3.53;3.08;;;10.90;61.60;;;;;;5003762;28;20082;-49
2023/10/18 00:45:21;;;;;;;5.47;3.40;;;10.80;61.50;;;;;;4996351;28;20054;-50
2023/10/18 00:47:49;;;;;;;5.72;3.72;;;10.90;61.60;;;;;;5011080;28;20129;-49
2023/10/18 00:50:18;;;;;;;3.67;3.38;;;10.90;61.70;;;;;;5009586;28;20095;-52
2023/10/18 00:52:47;;;;;;;4.55;3.60;;;10.80;61.60;;;;;;5001281;28;20536;-52
2023/10/18 00:55:15;;;;;;;5.03;3.53;;;10.80;61.50;;;;;;4996554;28;20038;-48
2023/10/18 00:57:44;;;;;;;4.82;3.47;;;10.80;61.50;;;;;;4982767;28;20045;-51
2023/10/18 01:00:19;;;;;;;4.35;3.65;;;10.80;61.60;;;;;;5004326;28;20070;-54
2023/10/18 01:02:50;;;;;;;7.00;3.60;;;10.80;61.70;;;;;;4985714;28;20100;-53
2023/10/18 01:05:16;;;;;;;5.90;3.33;;;10.80;61.60;;;;;;4989062;28;20046;-50
2023/10/18 01:07:46;;;;;;;3.35;3.05;;;10.80;61.60;;;;;;4991367;28;20117;-52
2023/10/18 01:10:13;;;;;;;5.70;3.42;;;10.80;61.60;;;;;;4987940;28;20120;-51
2023/10/18 01:12:39;;;;;;;4.88;3.67;;;10.80;61.70;;;;;;4986967;28;20501;-51
2023/10/18 01:15:07;;;;;;;4.07;3.47;;;10.80;61.70;;;;;;4989238;28;20154;-49
2023/10/18 01:17:42;;;;;;;3.88;3.50;;;10.80;61.80;;;;;;4981836;28;20409;-51
2023/10/18 01:20:38;;;;;;;4.65;3.30;;;10.70;61.70;;;;;;4987983;28;20133;-52
2023/10/18 01:23:06;;;;;;;4.53;3.30;;;10.70;61.80;;;;;;4984345;28;20049;-50
2023/10/18 01:25:34;;;;;;;4.07;3.47;;;10.70;61.70;;;;;;5001906;28;20517;-50
2023/10/18 01:28:01;;;;;;;3.60;3.30;;;10.70;61.80;;;;;;4976700;28;20102;-52
2023/10/18 01:30:29;;;;;;;5.20;3.58;;;10.70;61.80;;;;;;4990049;28;20045;-55
2023/10/18 01:33:01;;;;;;;4.40;3.40;;;10.70;61.80;;;;;;4984040;28;20089;-49
2023/10/18 01:35:31;;;;;;;4.30;3.60;;;10.70;61.70;;;;;;4981142;28;20083;-49
2023/10/18 01:38:00;;;;;;;4.22;3.83;;;10.70;61.70;;;;;;4990935;28;20038;-53
2023/10/18 01:40:41;;;;;;;3.95;3.28;;;10.70;61.80;;;;;;4983493;28;20047;-51
2023/10/18 01:43:11;;;;;;;4.38;3.97;;;10.70;61.90;;;;;;4982151;28;20509;-53
2023/10/18 01:45:41;;;;;;;3.60;3.30;;;10.70;61.90;;;;;;4981529;28;20579;-52
2023/10/18 01:48:09;;;;;;;4.53;3.30;;;10.70;61.90;;;;;;4987910;28;20603;-49
2023/10/18 01:50:39;;;;;;;6.00;3.65;;;10.60;61.80;;;;;;4975046;28;20046;-48
2023/10/18 01:53:15;;;;;;;5.00;3.97;;;10.60;61.80;;;;;;4991181;28;20041;-54
2023/10/18 01:55:51;;;;;;;4.15;3.53;;;10.60;61.90;;;;;;4984756;28;20531;-52
2023/10/18 01:58:23;;;;;;;5.55;4.05;;;10.60;62.00;;;;;;4993123;28;20043;-50
2023/10/18 02:00:53;;;;;;;3.97;3.58;;;10.60;62.00;;;;;;4989969;28;20424;-50
2023/10/18 02:03:20;;;;;;;3.83;3.45;;;10.60;61.90;;;;;;4991879;28;20052;-52
2023/10/18 02:05:49;;;;;;;5.45;3.70;;;10.60;61.90;;;;;;4987760;28;20058;-51
2023/10/18 02:08:20;;;;;;;4.35;3.40;;;10.60;62.00;;;;;;4977723;28;20162;-53
2023/10/18 02:10:50;;;;;;;4.60;3.90;;;10.60;62.00;;;;;;4986532;28;20053;-53
2023/10/18 02:13:18;;;;;;;3.60;3.30;;;10.60;62.10;;;;;;4986842;28;20093;-52
2023/10/18 02:15:48;;;;;;;3.90;2.97;;;10.60;62.10;;;;;;4996208;28;20167;-53
2023/10/18 02:18:23;;;;;;;4.03;3.40;;;10.50;62.00;;;;;;4987849;28;20045;-54
2023/10/18 02:20:52;;;;;;;4.57;3.40;;;10.50;62.10;;;;;;4984968;28;20061;-48
2023/10/18 02:23:21;;;;;;;5.28;3.92;;;10.50;62.00;;;;;;4991260;28;20089;-50
2023/10/18 02:25:48;;;;;;;3.60;3.00;;;10.50;62.00;;;;;;4987752;28;20168;-52
2023/10/18 02:28:22;;;;;;;4.95;3.30;;;10.50;62.00;;;;;;4989379;28;20050;-51
2023/10/18 02:31:24;;;;;;;5.43;4.13;;;10.50;62.70;;;;;;4990046;28;20049;-51
2023/10/18 02:33:49;;;;;;;7.28;3.40;;;10.50;62.10;;;;;;4995445;28;20049;-52
2023/10/18 02:36:32;;;;;;;4.63;2.72;;;10.50;62.00;;;;;;4985912;28;20045;-52
2023/10/18 02:38:59;;;;;;;3.50;3.15;;;10.50;62.00;;;;;;4978572;28;20042;-51
2023/10/18 02:41:27;;;;;;;6.80;3.35;;;10.50;61.90;;;;;;4992107;28;20066;-49
2023/10/18 02:43:55;;;;;;;3.60;2.90;;;10.50;62.00;;;;;;4985327;28;20522;-52
2023/10/18 02:46:24;;;;;;;3.40;3.05;;;10.50;61.90;;;;;;5003220;28;20229;-53
2023/10/18 02:48:52;;;;;;;6.82;3.55;;;10.50;62.00;;;;;;4986465;28;20039;-51
2023/10/18 02:51:22;;;;;;;4.70;3.72;;;10.50;62.00;;;;;;4989816;28;20048;-49
2023/10/18 02:56:38;;;;;;;3.63;3.33;;;10.40;61.90;;;;;;4976928;28;20769;-51
2023/10/18 02:59:06;;;;;;;3.90;3.38;;;10.40;61.90;;;;;;4982685;28;20586;-49
2023/10/18 03:01:42;;;;;;;5.78;3.60;;;10.40;61.90;;;;;;4984312;28;20054;-49
2023/10/18 03:04:14;;;;;;;3.28;2.97;;;10.40;62.00;;;;;;4983254;28;20070;-52
2023/10/18 03:06:45;;;;;;;4.20;3.05;;;10.40;62.60;;;;;;4986222;28;20064;-53
2023/10/18 03:11:59;;;;;;;2.88;2.63;;;10.40;61.90;;;;;;4983454;28;20034;-50
2023/10/18 03:14:39;;;;;;;3.30;2.63;;;10.40;62.00;;;;;;4977568;28;20038;-52
2023/10/18 03:17:23;;;;;;;4.28;3.40;;;10.40;62.00;;;;;;4985638;28;20031;-49
2023/10/18 03:19:58;;;;;;;4.20;3.63;;;10.40;61.90;;;;;;4983810;28;20039;-53
2023/10/18 03:22:31;;;;;;;4.45;3.30;;;10.40;61.90;;;;;;4992341;28;20368;-52
2023/10/18 03:25:00;;;;;;;3.88;2.90;;;10.40;62.00;;;;;;4990599;28;20046;-52
2023/10/18 03:27:31;;;;;;;6.75;3.92;;;10.40;62.00;;;;;;4983100;28;20054;-50
2023/10/18 03:30:11;;;;;;;4.82;3.50;;;10.40;62.10;;;;;;4987006;28;20038;-51
2023/10/18 03:32:41;;;;;;;2.90;2.60;;;10.30;62.10;;;;;;4985640;28;20046;-52
2023/10/18 03:35:09;;;;;;;3.70;2.90;;;10.30;62.10;;;;;;4990259;28;20105;-53
2023/10/18 03:37:39;;;;;;;3.50;3.20;;;10.30;62.10;;;;;;4982803;28;20046;-50
2023/10/18 03:40:19;;;;;;;4.25;3.22;;;10.30;62.20;;;;;;4988239;28;20093;-49
2023/10/18 03:42:50;;;;;;;5.25;3.20;;;10.30;62.10;;;;;;4988243;28;20050;-52
2023/10/18 03:45:21;;;;;;;3.33;3.03;;;10.30;62.10;;;;;;4987168;28;20242;-49
2023/10/18 03:48:04;;;;;;;3.20;2.90;;;10.30;62.30;;;;;;4986591;28;20500;-50
2023/10/18 03:50:38;;;;;;;3.30;2.92;;;10.30;62.50;;;;;;4998434;28;20115;-51
2023/10/18 03:53:08;;;;;;;3.42;2.97;;;10.30;62.90;;;;;;4992376;28;20038;-52
2023/10/18 03:55:39;;;;;;;3.67;3.20;;;10.30;62.20;;;;;;4984781;28;20154;-52
2023/10/18 03:58:06;;;;;;;3.80;3.10;;;10.30;62.30;;;;;;4982207;28;20039;-54
2023/10/18 04:00:54;;;;;;;5.28;3.30;;;10.30;62.30;;;;;;4998356;28;20134;-50
2023/10/18 04:03:28;;;;;;;3.20;2.72;;;10.30;62.40;;;;;;4998333;28;20048;-53
2023/10/18 04:06:03;;;;;;;4.05;3.15;;;10.30;62.40;;;;;;4987461;28;20568;-52
2023/10/18 04:08:32;;;;;;;3.50;3.20;;;10.30;63.10;;;;;;4990958;28;20041;-54
2023/10/18 04:10:58;;;;;;;3.13;2.80;;;10.20;62.40;;;;;;4989332;28;20787;-54
2023/10/18 04:13:31;;;;;;;3.53;3.03;;;10.20;62.50;;;;;;4989633;28;20042;-50
2023/10/18 04:16:09;;;;;;;4.63;3.30;;;10.20;62.50;;;;;;4983836;28;20524;-51
2023/10/18 04:18:43;;;;;;;5.60;3.13;;;10.30;62.40;;;;;;4990228;28;20073;-51
2023/10/18 04:21:15;;;;;;;6.15;3.22;;;10.20;62.40;;;;;;4987452;28;20455;-49
2023/10/18 04:23:49;;;;;;;3.90;3.45;;;10.20;62.40;;;;;;4992090;28;20125;-51
2023/10/18 04:26:18;;;;;;;4.95;3.50;;;10.30;62.60;;;;;;4988754;28;20101;-53
2023/10/18 04:28:48;;;;;;;3.40;2.90;;;10.20;62.40;;;;;;4984648;28;20042;-52
2023/10/18 04:31:21;;;;;;;5.78;3.22;;;10.20;62.40;;;;;;4997922;28;20069;-51
2023/10/18 04:33:53;;;;;;;5.22;3.67;;;10.20;63.10;;;;;;4996872;28;20074;-49
2023/10/18 04:36:25;;;;;;;4.88;3.25;;;10.20;62.40;;;;;;4991872;28;20049;-50
2023/10/18 04:38:56;;;;;;;3.63;2.97;;;10.20;62.40;;;;;;4987219;28;20062;-51
2023/10/18 04:41:26;;;;;;;3.90;3.42;;;10.20;62.50;;;;;;4999204;28;20466;-52
2023/10/18 04:44:07;;;;;;;4.03;2.92;;;10.20;62.40;;;;;;4984219;28;20448;-52
2023/10/18 04:46:37;;;;;;;3.33;3.00;;;10.20;62.40;;;;;;4993769;28;20459;-52
2023/10/18 04:54:15;;;;;;;6.25;3.70;;;10.20;62.50;;;;;;4981053;28;20046;-49
2023/10/18 04:56:46;;;;;;;5.05;3.53;;;10.20;62.50;;;;;;4982476;28;20038;-53
2023/10/18 05:07:01;;;;;;;4.38;3.90;;;10.20;62.60;;;;;;4982788;28;20050;-52
2023/10/18 05:09:34;;;;;;;5.47;3.85;;;10.20;62.60;;;;;;4999321;28;20471;-51
2023/10/18 05:14:53;;;;;;;3.97;3.42;;;10.20;62.80;;;;;;4979779;28;20050;-50
2023/10/18 05:17:30;;;;;;;3.72;3.28;;;10.20;62.70;;;;;;4982407;28;20053;-53
2023/10/18 05:19:57;;;;;;;3.92;3.22;;;10.20;62.70;;;;;;4981989;28;20043;-50
2023/10/18 05:22:24;;;;;;;5.05;3.47;;;10.20;62.60;;;;;;4979102;28;20042;-52
2023/10/18 05:25:15;;;;;;;4.30;3.58;;;10.20;62.80;;;;;;4980123;28;20416;-52
2023/10/18 05:27:46;;;;;;;5.38;3.47;;;10.20;62.90;;;;;;4986487;28;20042;-55
2023/10/18 05:30:25;;;;;;;3.22;2.90;;;10.20;62.80;;;;;;4994810;28;20097;-53
2023/10/18 05:35:27;;;;;;;5.25;3.15;;;10.20;62.80;;;;;;4991735;28;20045;-52
2023/10/18 05:38:19;;;;;;;4.07;3.42;;;10.20;62.80;;;;;;4987645;28;20044;-50
2023/10/18 05:40:57;;;;;;;4.30;3.67;;;10.20;62.80;;;;;;4990563;28;20069;-52
2023/10/18 05:43:31;;;;;;;4.57;3.42;;;10.20;62.80;;;;;;4997113;28;20050;-51
2023/10/18 05:46:07;;;;;;;4.53;3.47;;;10.20;62.70;;;;;;4986206;28;20520;-51
2023/10/18 05:48:40;;;;;;;3.47;3.17;;;10.20;62.60;;;;;;4985383;28;20042;-51
2023/10/18 05:51:26;;;;;;;3.95;3.55;;;10.20;62.60;;;;;;4983464;28;20058;-48
2023/10/18 05:54:04;;;;;;;3.95;3.55;;;10.20;62.60;;;;;;4998570;28;20045;-52
2023/10/18 05:56:34;;;;;;;3.95;3.60;;;10.20;62.60;;;;;;4990670;28;20042;-52
2023/10/18 06:02:01;;;;;;;3.72;3.17;;;10.20;62.80;;;;;;4992249;28;20108;-51
2023/10/18 06:04:37;;;;;;;8.93;4.03;;;10.20;62.70;;;;;;5001165;28;20053;-52
2023/10/18 06:07:12;;;;;;;4.53;4.13;;;10.20;62.70;;;;;;4985014;28;20101;-52
2023/10/18 06:09:49;;;;;;;4.32;3.55;;;10.20;62.80;;;;;;4994117;28;20049;-53
2023/10/18 06:12:28;;;;;;;4.50;3.75;;;10.10;62.70;;;;;;4986524;28;20039;-53
2023/10/18 06:15:10;;;;;;;5.70;3.67;;;10.10;62.70;;;;;;4976999;28;20062;-53
2023/10/18 06:17:47;;;;;;;5.32;3.97;;;10.10;62.70;;;;;;4985757;28;20466;-52
2023/10/18 06:20:27;;;;;;;4.85;3.78;;;10.10;62.70;;;;;;4987745;28;20042;-52
2023/10/18 06:23:08;;;;;;;7.00;3.90;;;10.10;62.80;;;;;;4994627;28;20044;-53
2023/10/18 06:25:38;;;;;;;5.18;3.97;;;10.10;62.90;;;;;;4983754;28;20069;-52
2023/10/18 06:28:07;;;;;;;4.65;4.10;;;10.10;62.90;;;;;;4984590;28;20130;-52
2023/10/18 06:30:39;;;;;;;4.78;3.45;;;10.20;62.90;;;;;;4984461;28;20050;-49
2023/10/18 06:33:07;;;;;;;4.47;3.88;;;10.20;63.10;;;;;;4997074;28;20497;-53
2023/10/18 06:35:43;;;;;;;4.65;4.22;;;10.20;62.90;;;;;;4990374;28;20050;-51
2023/10/18 06:38:17;;;;;;;5.10;4.15;;;10.20;63.00;;;;;;4981244;28;20120;-53
2023/10/18 06:40:51;;;;;;;4.78;4.22;;;10.20;62.90;;;;;;4987002;28;20042;-53
2023/10/18 06:43:31;;;;;;;5.70;3.97;;;10.30;63.00;;;;;;5003289;28;20041;-51
2023/10/18 06:45:58;;;;;;;5.07;3.92;;;10.30;62.90;;;;;;4993156;28;20039;-52
2023/10/18 06:48:28;;;;;;;5.10;3.70;;;10.30;62.90;;;;;;4987775;28;20043;-50
2023/10/18 06:50:57;;;;;;;7.03;4.47;;;10.40;63.10;;;;;;5000053;28;20068;-48
2023/10/18 06:53:26;;;;;;;5.95;3.83;;;10.40;63.00;;;;;;5002355;28;20053;-51
2023/10/18 06:55:57;;;;;;;7.57;4.20;;;10.40;62.90;;;;;;4985560;28;20041;-51
2023/10/18 07:01:00;;;;;;;5.53;4.15;;;10.50;62.90;;;;;;5000135;28;20046;-51
2023/10/18 07:03:27;;;;;;;5.45;3.92;;;10.50;62.80;;;;;;4999530;28;20049;-53
2023/10/18 07:05:56;;;;;;;4.72;4.10;;;10.60;62.80;;;;;;4986408;28;20084;-51
2023/10/18 07:08:32;;;;;;;4.47;4.07;;;10.60;62.70;;;;;;5000912;28;20459;-53
2023/10/18 07:11:02;;;;;;;4.85;4.10;;;10.70;62.60;;;;;;5000203;28;20112;-51
2023/10/18 07:13:54;;;;;;;5.72;4.80;;;10.70;62.50;;;;;;4979228;28;20448;-51
2023/10/18 07:16:38;;;;;;;5.35;4.32;;;10.80;62.50;;;;;;4983305;28;20047;-50
2023/10/18 07:19:23;;;;;;;5.15;4.20;;;10.80;62.50;;;;;;4994936;28;21514;-52
2023/10/18 07:21:51;;;;;;;5.00;4.05;;;10.80;62.30;;;;;;4998337;28;20045;-50
2023/10/18 07:24:20;;;;;;;5.57;4.15;;;10.90;62.30;;;;;;5004073;28;20047;-49
2023/10/18 07:26:47;;;;;;;5.22;4.25;;;10.90;62.20;;;;;;4993883;28;20081;-53
2023/10/18 07:29:15;;;;;;;5.30;4.28;;;11.00;62.30;;;;;;4994338;28;20060;-53
2023/10/18 07:31:46;;;;;;;5.53;4.47;;;11.00;62.30;;;;;;4989243;28;20411;-49
2023/10/18 07:34:31;;;;;;;7.32;4.95;;;11.10;62.30;;;;;;4985533;28;20094;-53
2023/10/18 07:37:10;;;;;;;5.95;4.45;;;11.10;62.20;;;;;;4987584;28;20145;-52
2023/10/18 07:39:49;;;;;;;6.25;4.70;;;11.20;62.30;;;;;;4998185;28;20050;-52
2023/10/18 07:42:19;;;;;;;7.25;4.53;;;11.20;62.00;;;;;;5004289;28;20308;-53
2023/10/18 07:44:52;;;;;;;6.97;4.57;;;11.20;62.00;;;;;;4996083;28;20054;-52
2023/10/18 07:47:20;;;;;;;5.28;4.65;;;11.30;62.00;;;;;;4997064;28;20112;-51
2023/10/18 07:49:46;;;;;;;7.75;5.75;;;11.40;62.10;;;;;;5006879;28;20449;-51
2023/10/18 07:52:13;;;;;;;8.98;5.00;;;11.40;62.00;;;;;;5004179;28;20038;-51
2023/10/18 07:54:42;;;;;;;8.15;6.22;;;11.50;62.00;;;;;;4994076;28;20053;-49
2023/10/18 07:57:15;;;;;;;5.88;4.93;;;11.50;62.00;;;;;;4988164;28;20051;-53
2023/10/18 07:59:47;;;;;;;5.55;4.80;;;11.60;61.90;;;;;;4999735;28;20038;-49
2023/10/18 08:02:23;;;;;;;;;;;11.60;61.80;;;;;;5004873;28;20424;-50
2023/10/18 08:04:51;;;;;;;6.47;4.68;;;11.80;61.90;;;;;;4991133;28;20258;-51
2023/10/18 08:07:22;;;;;;;7.97;4.82;;;11.70;61.50;;;;;;4997167;28;20049;-52
2023/10/18 08:09:49;;;;;;;7.13;5.22;;;11.80;61.50;;;;;;4994599;28;20042;-51
2023/10/18 08:12:33;;;;;;;5.55;4.40;;;11.80;61.30;;;;;;4988460;28;20114;-49
2023/10/18 08:15:00;;;;;;;11.88;4.43;;;11.80;61.40;;;;;;4977571;28;20039;-52
2023/10/18 08:17:30;;;;;;;6.00;4.93;;;11.90;61.40;;;;;;4986933;28;20058;-52
2023/10/18 08:20:29;;;;;;;5.88;4.95;;;12.00;61.40;;;;;;5001233;28;20042;-50
2023/10/18 08:22:54;;;;;;;7.18;5.38;;;12.00;62.10;;;;;;4997205;28;20504;-51
2023/10/18 08:25:24;;;;;;;7.63;5.38;;;12.10;61.30;;;;;;4988727;28;20043;-52
2023/10/18 08:27:51;;;;;;;6.53;4.90;;;12.20;61.10;;;;;;4987998;28;20050;-52
2023/10/18 08:30:38;;;;;;;5.97;4.85;;;12.20;61.10;;;;;;4997303;28;20537;-51
2023/10/18 08:33:08;;;;;;;6.90;4.57;;;12.30;61.10;;;;;;5005647;28;20038;-51
2023/10/18 08:35:36;;;;;;;9.45;6.20;;;12.30;60.80;;;;;;4998611;28;20455;-48
2023/10/18 08:38:03;;;;;;;8.30;5.43;;;12.40;60.80;;;;;;5006656;28;20030;-50
2023/10/18 08:43:28;;;;;;;6.53;5.25;;;12.50;60.40;;;;;;4995063;28;20062;-54
2023/10/18 08:45:56;;;;;;;5.85;4.93;;;12.60;60.40;;;;;;5000272;28;20508;-52
2023/10/18 08:48:30;;;;;;;8.35;5.43;;;12.60;60.40;;;;;;5007114;28;20484;-52
2023/10/18 08:50:59;;;;;;;6.28;5.65;;;12.60;60.60;;;;;;4990796;28;20493;-49
2023/10/18 08:53:26;;;;;;;6.63;5.57;;;12.70;60.40;;;;;;4998025;28;20116;-50
2023/10/18 08:55:58;;;;;;;8.13;5.80;;;12.70;60.30;;;;;;4996741;28;20062;-49
2023/10/18 08:58:28;;;;;;;7.20;5.20;;;12.80;60.30;;;;;;4993128;28;20035;-50
2023/10/18 09:03:28;;;;;;;6.78;5.43;;;12.90;60.00;;;;;;4990036;28;20042;-51
2023/10/18 09:06:04;;;;;;;;;;;13.00;60.00;;;;;;4998736;28;20523;-51
2023/10/18 09:08:41;;;;;;;9.07;5.78;;;13.10;60.20;;;;;;5006462;28;19921;-54
2023/10/18 09:11:27;;;;;;;6.45;5.85;;;13.20;59.70;;;;;;4995946;28;20563;-51
2023/10/18 09:14:07;;;;;;;10.30;6.40;;;13.20;59.60;;;;;;4982041;28;20066;-50
2023/10/18 09:16:37;;;;;;;7.17;6.43;;;13.30;59.70;;;;;;4973287;28;20129;-53
2023/10/18 09:19:11;;;;;;;9.57;6.28;;;13.40;59.60;;;;;;4976091;28;20285;-49
2023/10/18 09:24:14;;;;;;;8.55;7.00;;;13.50;59.60;;;;;;4976578;28;20109;-52
2023/10/18 09:26:43;;;;;;;10.15;7.32;;;13.60;59.60;;;;;;4987198;28;20038;-52
2023/10/18 09:29:10;;;;;;;8.55;6.43;;;13.70;59.30;;;;;;5005510;28;20527;-53
2023/10/18 09:32:04;;;;;;;8.25;6.82;;;13.70;59.10;;;;;;5008050;28;20408;-49
2023/10/18 09:34:34;;;;;;;7.15;5.53;;;13.80;58.90;;;;;;4997418;28;20038;-51
2023/10/18 09:37:04;;;;;;;7.05;5.90;;;13.90;59.20;;;;;;4992088;28;20411;-49
2023/10/18 09:39:43;;;;;;;8.52;7.65;;;13.90;58.90;;;;;;5007307;28;20116;-53
2023/10/18 09:42:12;;;;;;;9.00;7.00;;;13.90;58.70;;;;;;5004296;28;20046;-53
2023/10/18 09:44:41;;;;;;;7.90;6.80;;;14.00;58.70;;;;;;4989915;28;20042;-50
2023/10/18 09:47:09;;;;;;;7.65;6.15;;;14.00;58.70;;;;;;5003445;28;20415;-50
2023/10/18 09:49:39;;;;;;;8.68;6.53;;;14.10;58.50;;;;;;4994421;28;20050;-52
2023/10/18 09:52:08;;;;;;;8.63;6.43;;;14.20;58.50;;;;;;4991708;28;20497;-52
2023/10/18 09:54:38;;;;;;;9.90;7.28;;;14.20;58.30;;;;;;4992929;28;20737;-51
2023/10/18 09:57:07;;;;;;;7.68;6.97;;;14.20;58.40;;;;;;4992879;28;20638;-54
2023/10/18 09:59:37;;;;;;;8.70;6.55;;;14.20;58.60;;;;;;5008416;28;20539;-50
2023/10/18 10:02:08;;;;;;;9.75;6.68;;;14.30;58.30;;;;;;5007896;28;20066;-52
2023/10/18 10:04:36;;;;;;;10.95;6.57;;;14.30;58.30;;;;;;4993639;28;20100;-49
2023/10/18 10:09:59;;;;;;;9.23;6.03;;;14.40;58.10;;;;;;4996265;28;20050;-52
2023/10/18 10:12:27;;;;;;;7.63;6.15;;;14.40;58.10;;;;;;4986947;28;20121;-52
2023/10/18 10:14:58;;;;;;;7.28;6.07;;;14.40;58.20;;;;;;4975793;28;20043;-49
2023/10/18 10:17:28;;;;;;;7.45;5.63;;;14.50;58.20;;;;;;4973523;28;20093;-50
2023/10/18 10:20:10;;;;;;;8.02;6.45;;;14.50;58.10;;;;;;4977830;28;20030;-51
2023/10/18 10:22:42;;;;;;;7.70;5.47;;;14.60;57.90;;;;;;4979015;28;20482;-54
2023/10/18 10:25:31;;;;;;;7.38;4.82;;;14.60;58.10;;;;;;4972392;28;20055;-52
2023/10/18 10:31:54;;;;;;;10.00;5.88;;;14.80;58.20;;;;;;5007282;28;20042;-50
2023/10/18 10:34:32;;;;;;;7.45;5.82;;;14.80;58.00;;;;;;5004623;28;20465;-53
2023/10/18 10:37:08;;;;;;;5.60;5.00;;;14.90;57.70;;;;;;4993051;28;20073;-54
2023/10/18 10:39:44;;;;;;;8.45;5.07;;;15.00;57.70;;;;;;5001467;28;20069;-53
2023/10/18 10:42:41;;;;;;;7.07;5.18;;;15.00;57.60;;;;;;5008586;28;20451;-53
2023/10/18 10:47:50;;;;;;;6.28;4.95;;;15.10;57.40;;;;;;4997500;28;20136;-53
2023/10/18 10:50:41;;;;;;;5.38;4.88;;;15.20;57.20;;;;;;5008064;28;20041;-53
2023/10/18 10:53:09;;;;;;;5.43;4.65;;;15.30;56.70;;;;;;5003118;28;20047;-53
2023/10/18 10:55:36;;;;;;;6.63;4.85;;;15.30;56.70;;;;;;4997142;28;20038;-49
2023/10/18 10:58:38;;;;;;;9.75;5.35;;;15.40;56.70;;;;;;5005855;28;20516;-51
2023/10/18 11:01:08;;;;;;;6.38;4.40;;;15.40;56.40;;;;;;5012441;28;20088;-52
2023/10/18 11:03:54;;;;;;;6.18;5.03;;;15.50;56.00;;;;;;4994237;28;20069;-51
2023/10/18 11:06:24;;;;;;;6.78;5.05;;;15.50;56.30;;;;;;4998260;28;20053;-50
2023/10/18 11:08:55;;;;;;;5.75;4.45;;;15.50;56.20;;;;;;4999391;28;20588;-50
2023/10/18 11:11:22;;;;;;;6.72;4.35;;;15.60;56.20;;;;;;4977065;28;20080;-50
2023/10/18 11:13:54;;;;;;;11.88;7.07;;;15.60;56.60;;;;;;4988169;28;20448;-54
2023/10/18 11:16:21;;;;;;;6.90;5.65;;;15.70;56.40;;;;;;4991612;28;20082;-50
2023/10/18 11:18:49;;;;;;;8.20;6.90;;;15.80;56.30;;;;;;4992916;28;20038;-51
2023/10/18 11:21:21;;;;;;;8.93;5.97;;;15.80;55.90;;;;;;4986602;28;20041;-54
2023/10/18 11:24:01;;;;;;;10.93;6.07;;;15.90;55.60;;;;;;4980216;28;20092;-49
2023/10/18 11:26:38;;;;;;;6.65;5.45;;;16.00;55.60;;;;;;4985958;28;20417;-52
2023/10/18 11:29:08;;;;;;;7.20;5.97;;;16.10;55.80;;;;;;4983177;28;20173;-54
2023/10/18 11:31:38;;;;;;;8.35;6.28;;;16.10;55.40;;;;;;4993369;28;20046;-53
2023/10/18 11:34:14;;;;;;;8.40;6.20;;;16.20;55.20;;;;;;4991760;28;21987;-53
2023/10/18 11:36:42;;;;;;;6.80;5.28;;;16.20;55.00;;;;;;4977288;28;20046;-49
2023/10/18 11:39:19;;;;;;;6.85;5.47;;;16.30;55.10;;;;;;4991338;28;20089;-51
2023/10/18 11:41:53;;;;;;;6.55;4.22;;;16.40;54.50;;;;;;4993546;28;20635;-53
2023/10/18 11:44:34;;;;;;;5.65;5.05;;;16.40;55.00;;;;;;4989033;28;20450;-50
2023/10/18 11:47:12;;;;;;;6.32;4.30;;;16.50;54.50;;;;;;4979949;28;20047;-52
2023/10/18 11:49:41;;;;;;;6.32;5.20;;;16.50;55.30;;;;;;4979312;28;20038;-49
2023/10/18 11:52:16;;;;;;;6.68;4.85;;;16.60;54.20;;;;;;4993792;28;20136;-53
2023/10/18 11:54:44;;;;;;;7.68;5.50;;;16.60;53.70;;;;;;4976836;28;20073;-54
2023/10/18 11:57:46;;;;;;;17.05;9.18;;;16.60;54.10;;;;;;4981860;28;20587;-52
2023/10/18 12:02:50;;;;;;;7.90;5.35;;;16.80;53.90;;;;;;4979206;28;20069;-50
2023/10/18 12:05:23;;;;;;;11.00;7.25;;;16.90;53.90;;;;;;4986837;28;20035;-50
2023/10/18 12:07:53;;;;;;;9.20;5.18;;;16.90;53.70;;;;;;4983469;28;20069;-51
2023/10/18 12:10:34;;;;;;;4.78;3.50;;;17.00;54.00;;;;;;4992219;28;20101;-50
2023/10/18 12:13:06;;;;;;;10.60;5.60;;;17.00;53.50;;;;;;4989772;28;20062;-52
2023/10/18 12:15:36;;;;;;;6.15;4.65;;;17.10;53.70;;;;;;4992001;28;20078;-50
2023/10/18 12:18:05;;;;;;;8.77;4.55;;;17.10;53.20;;;;;;4992146;28;20046;-54
2023/10/18 12:20:35;;;;;;;5.15;3.40;;;17.20;53.40;;;;;;4987237;28;20050;-50
2023/10/18 12:23:18;;;;;;;3.60;2.92;;;17.30;53.10;;;;;;4989294;28;20512;-50
2023/10/18 12:25:46;;;;;;;4.35;2.80;;;17.40;52.80;;;;;;4989456;28;20052;-51
2023/10/18 12:28:13;;;;;;;3.63;3.15;;;17.40;52.70;;;;;;4978977;28;20066;-51
2023/10/18 12:30:43;;;;;;;3.83;2.63;;;17.50;52.70;;;;;;4991451;28;20046;-49
2023/10/18 12:33:19;;;;;;;3.13;2.60;;;17.60;52.90;;;;;;4991043;28;20052;-54
2023/10/18 12:35:48;;;;;;;4.05;2.88;;;17.70;52.80;;;;;;4979120;28;20046;-52
2023/10/18 12:38:20;;;;;;;3.13;2.50;;;17.70;52.60;;;;;;4994735;28;20101;-52
2023/10/18 12:40:58;;;;;;;3.70;2.78;;;17.80;52.40;;;;;;4989035;28;20124;-54
2023/10/18 12:43:26;;;;;;;5.65;2.90;;;17.90;52.50;;;;;;4984966;28;20054;-50
2023/10/18 12:45:53;;;;;;;3.35;2.50;;;18.00;51.90;;;;;;4993999;28;20043;-53
2023/10/18 12:48:23;;;;;;;4.38;3.33;;;18.10;51.50;;;;;;4994773;28;20053;-53
2023/10/18 12:50:51;;;;;;;4.88;3.03;;;18.10;51.50;;;;;;4985723;28;20505;-50
2023/10/18 12:56:16;;;;;;;3.60;2.53;;;18.30;51.10;;;;;;4979154;28;20042;-51
2023/10/18 12:58:54;;;;;;;2.50;2.30;;;18.30;50.70;;;;;;4984731;28;20102;-54
2023/10/18 13:01:31;;;;;;;3.50;2.28;;;18.40;51.60;;;;;;4979559;28;20066;-54
2023/10/18 13:03:59;;;;;;;2.85;2.47;;;18.40;51.30;;;;;;4994399;28;20067;-50
2023/10/18 13:06:30;;;;;;;3.78;2.92;;;18.50;51.30;;;;;;4994882;28;20046;-55
2023/10/18 13:09:16;;;;;;;3.80;2.55;;;18.60;51.00;;;;;;4991672;28;20065;-54
2023/10/18 13:11:46;;;;;;;4.50;2.58;;;18.60;50.70;;;;;;4986792;28;20117;-54
2023/10/18 13:14:29;;;;;;;2.65;2.28;;;18.70;50.70;;;;;;4995499;28;20074;-52
2023/10/18 13:17:00;;;;;;;4.00;2.83;;;18.80;50.20;;;;;;4981665;28;20030;-54
2023/10/18 13:19:30;;;;;;;2.42;2.20;;;18.80;50.40;;;;;;4986467;28;20126;-52
2023/10/18 13:21:58;;;;;;;3.40;2.40;;;18.80;50.10;;;;;;4986617;28;20507;-52
2023/10/18 13:26:53;;;;;;;4.55;2.40;;;18.90;50.00;;;;;;4978960;28;20046;-51
2023/10/18 13:31:52;;;;;;;2.97;2.25;;;19.00;49.60;;;;;;4981832;28;20532;-53
2023/10/18 13:34:18;;;;;;;3.25;2.20;;;19.00;49.50;;;;;;4989328;28;20525;-50
2023/10/18 13:36:50;;;;;;;4.07;2.13;;;19.00;49.80;;;;;;4985023;28;20038;-54
2023/10/18 13:39:18;;;;;;;6.22;2.53;;;19.10;50.30;;;;;;4995898;28;20038;-51
2023/10/18 13:41:47;;;;;;;3.83;2.45;;;19.10;49.80;;;;;;4993698;28;20671;-52
2023/10/18 13:44:14;;;;;;;2.40;1.80;;;19.20;50.00;;;;;;4987443;28;20530;-53
2023/10/18 13:46:41;;;;;;;2.00;1.75;;;19.20;49.90;;;;;;4994434;28;20440;-54
2023/10/18 13:49:33;;;;;;;1.50;1.40;;;19.20;49.90;;;;;;4996784;28;20116;-52
2023/10/18 13:51:59;;;;;;;2.83;2.20;;;19.30;49.60;;;;;;4984659;28;20046;-53
2023/10/18 13:54:28;;;;;;;2.30;2.10;;;19.30;49.70;;;;;;4988248;28;20471;-51
2023/10/18 13:56:55;;;;;;;2.97;1.95;;;19.30;49.40;;;;;;4983792;28;20492;-53
2023/10/18 13:59:26;;;;;;;3.22;2.30;;;19.30;49.60;;;;;;4987627;28;20042;-54
2023/10/18 14:01:56;;;;;;;3.28;1.70;;;19.30;49.50;;;;;;4981165;28;20444;-53
2023/10/18 14:04:28;;;;;;;3.17;1.90;;;19.30;49.30;;;;;;4990645;28;20050;-52
2023/10/18 14:07:00;;;;;;;3.85;2.30;;;19.30;49.20;;;;;;4979112;28;20038;-51
2023/10/18 14:09:34;;;;;;;1.73;1.60;;;19.30;49.20;;;;;;4993782;28;20541;-52
2023/10/18 14:12:04;;;;;;;3.30;1.70;;;19.30;49.10;;;;;;4995466;28;20064;-50
2023/10/18 14:14:31;;;;;;;2.53;1.90;;;19.20;49.00;;;;;;4969682;28;20504;-53